sensor_id;sensor_type;location;lat;lon;timestamp;P1;durP1;ratioP1;P2;durP2;ratioP2
67981;SDS011;64109;52.148;4.466;2023-04-06T00:00:58;10.55;;;5.50;;
67981;SDS011;64109;52.148;4.466;2023-04-06T00:03:25;11.00;;;4.68;;
67981;SDS011;64109;52.148;4.466;2023-04-06T00:05:51;14.38;;;5.75;;
67981;SDS011;64109;52.148;4.466;2023-04-06T00:08:16;11.30;;;5.25;;
67981;SDS011;64109;52.148;4.466;2023-04-06T00:10:42;11.00;;;5.57;;
67981;SDS011;64109;52.148;4.466;2023-04-06T00:13:08;12.40;;;6.03;;
67981;SDS011;64109;52.148;4.466;2023-04-06T00:15:35;12.32;;;6.30;;
67981;SDS011;64109;52.148;4.466;2023-04-06T00:18:00;11.52;;;5.20;;
67981;SDS011;64109;52.148;4.466;2023-04-06T00:20:26;10.15;;;5.53;;
67981;SDS011;64109;52.148;4.466;2023-04-06T00:22:52;12.43;;;5.40;;
67981;SDS011;64109;52.148;4.466;2023-04-06T00:25:19;14.38;;;5.53;;
67981;SDS011;64109;52.148;4.466;2023-04-06T00:27:45;12.02;;;5.18;;
67981;SDS011;64109;52.148;4.466;2023-04-06T00:30:11;10.73;;;5.68;;
67981;SDS011;64109;52.148;4.466;2023-04-06T00:32:37;10.82;;;5.05;;
67981;SDS011;64109;52.148;4.466;2023-04-06T00:35:03;9.55;;;4.82;;
67981;SDS011;64109;52.148;4.466;2023-04-06T00:37:29;10.68;;;5.50;;
67981;SDS011;64109;52.148;4.466;2023-04-06T00:39:55;11.48;;;5.15;;
67981;SDS011;64109;52.148;4.466;2023-04-06T00:42:21;10.90;;;5.50;;
67981;SDS011;64109;52.148;4.466;2023-04-06T00:44:53;8.90;;;4.85;;
67981;SDS011;64109;52.148;4.466;2023-04-06T00:49:46;10.88;;;5.18;;
67981;SDS011;64109;52.148;4.466;2023-04-06T00:52:12;10.80;;;5.15;;
67981;SDS011;64109;52.148;4.466;2023-04-06T00:54:38;12.88;;;5.05;;
67981;SDS011;64109;52.148;4.466;2023-04-06T00:57:04;8.57;;;5.20;;
67981;SDS011;64109;52.148;4.466;2023-04-06T00:59:30;7.63;;;4.25;;
67981;SDS011;64109;52.148;4.466;2023-04-06T01:01:57;10.43;;;4.82;;
67981;SDS011;64109;52.148;4.466;2023-04-06T01:04:23;9.18;;;4.68;;
67981;SDS011;64109;52.148;4.466;2023-04-06T01:06:49;7.65;;;4.38;;
67981;SDS011;64109;52.148;4.466;2023-04-06T01:09:16;9.15;;;4.90;;
67981;SDS011;64109;52.148;4.466;2023-04-06T01:11:42;8.30;;;4.50;;
67981;SDS011;64109;52.148;4.466;2023-04-06T01:14:08;8.38;;;4.57;;
67981;SDS011;64109;52.148;4.466;2023-04-06T01:16:34;9.05;;;4.07;;
67981;SDS011;64109;52.148;4.466;2023-04-06T01:19:01;7.18;;;4.13;;
67981;SDS011;64109;52.148;4.466;2023-04-06T01:21:27;8.13;;;4.43;;
67981;SDS011;64109;52.148;4.466;2023-04-06T01:23:53;7.97;;;4.88;;
67981;SDS011;64109;52.148;4.466;2023-04-06T01:26:19;6.93;;;3.72;;
67981;SDS011;64109;52.148;4.466;2023-04-06T01:28:45;7.35;;;3.95;;
67981;SDS011;64109;52.148;4.466;2023-04-06T01:31:11;9.45;;;4.22;;
67981;SDS011;64109;52.148;4.466;2023-04-06T01:33:37;7.07;;;4.03;;
67981;SDS011;64109;52.148;4.466;2023-04-06T01:36:03;7.97;;;3.80;;
67981;SDS011;64109;52.148;4.466;2023-04-06T01:38:30;7.75;;;3.95;;
67981;SDS011;64109;52.148;4.466;2023-04-06T01:40:56;7.00;;;4.07;;
67981;SDS011;64109;52.148;4.466;2023-04-06T01:43:22;5.97;;;3.40;;
67981;SDS011;64109;52.148;4.466;2023-04-06T01:45:48;6.45;;;3.60;;
67981;SDS011;64109;52.148;4.466;2023-04-06T01:48:14;7.55;;;3.72;;
67981;SDS011;64109;52.148;4.466;2023-04-06T01:50:40;5.63;;;3.55;;
67981;SDS011;64109;52.148;4.466;2023-04-06T01:53:06;7.57;;;3.80;;
67981;SDS011;64109;52.148;4.466;2023-04-06T01:55:32;7.40;;;3.75;;
67981;SDS011;64109;52.148;4.466;2023-04-06T01:57:58;6.25;;;3.60;;
67981;SDS011;64109;52.148;4.466;2023-04-06T02:00:24;7.20;;;3.97;;
67981;SDS011;64109;52.148;4.466;2023-04-06T02:02:50;8.23;;;3.65;;
67981;SDS011;64109;52.148;4.466;2023-04-06T02:05:16;5.43;;;3.72;;
67981;SDS011;64109;52.148;4.466;2023-04-06T02:07:42;5.65;;;3.58;;
67981;SDS011;64109;52.148;4.466;2023-04-06T02:10:11;6.70;;;3.33;;
67981;SDS011;64109;52.148;4.466;2023-04-06T02:12:38;6.05;;;3.78;;
67981;SDS011;64109;52.148;4.466;2023-04-06T02:15:04;5.78;;;3.60;;
67981;SDS011;64109;52.148;4.466;2023-04-06T02:17:30;6.18;;;3.47;;
67981;SDS011;64109;52.148;4.466;2023-04-06T02:19:56;5.40;;;3.03;;
67981;SDS011;64109;52.148;4.466;2023-04-06T02:22:22;5.50;;;3.30;;
67981;SDS011;64109;52.148;4.466;2023-04-06T02:24:48;6.43;;;3.22;;
67981;SDS011;64109;52.148;4.466;2023-04-06T02:27:14;5.07;;;2.97;;
67981;SDS011;64109;52.148;4.466;2023-04-06T02:29:40;6.82;;;3.72;;
67981;SDS011;64109;52.148;4.466;2023-04-06T02:32:06;5.00;;;2.90;;
67981;SDS011;64109;52.148;4.466;2023-04-06T02:34:32;6.38;;;3.63;;
67981;SDS011;64109;52.148;4.466;2023-04-06T02:36:58;6.47;;;3.20;;
67981;SDS011;64109;52.148;4.466;2023-04-06T02:39:24;9.05;;;3.58;;
67981;SDS011;64109;52.148;4.466;2023-04-06T02:41:50;5.40;;;3.00;;
67981;SDS011;64109;52.148;4.466;2023-04-06T02:44:16;6.20;;;3.28;;
67981;SDS011;64109;52.148;4.466;2023-04-06T02:46:42;5.18;;;3.38;;
67981;SDS011;64109;52.148;4.466;2023-04-06T02:49:08;6.25;;;3.30;;
67981;SDS011;64109;52.148;4.466;2023-04-06T02:51:34;6.63;;;3.20;;
67981;SDS011;64109;52.148;4.466;2023-04-06T02:54:00;6.00;;;3.45;;
67981;SDS011;64109;52.148;4.466;2023-04-06T02:56:26;6.07;;;3.50;;
67981;SDS011;64109;52.148;4.466;2023-04-06T02:58:52;14.13;;;3.78;;
67981;SDS011;64109;52.148;4.466;2023-04-06T03:01:18;5.22;;;3.10;;
67981;SDS011;64109;52.148;4.466;2023-04-06T03:03:44;6.05;;;3.00;;
67981;SDS011;64109;52.148;4.466;2023-04-06T03:06:10;4.97;;;3.30;;
67981;SDS011;64109;52.148;4.466;2023-04-06T03:08:36;7.57;;;3.40;;
67981;SDS011;64109;52.148;4.466;2023-04-06T03:11:02;5.35;;;3.40;;
67981;SDS011;64109;52.148;4.466;2023-04-06T03:13:28;5.43;;;2.92;;
67981;SDS011;64109;52.148;4.466;2023-04-06T03:15:54;5.88;;;3.25;;
67981;SDS011;64109;52.148;4.466;2023-04-06T03:18:21;5.40;;;3.53;;
67981;SDS011;64109;52.148;4.466;2023-04-06T03:20:48;5.25;;;3.17;;
67981;SDS011;64109;52.148;4.466;2023-04-06T03:23:14;5.60;;;3.08;;
67981;SDS011;64109;52.148;4.466;2023-04-06T03:25:40;6.03;;;2.95;;
67981;SDS011;64109;52.148;4.466;2023-04-06T03:28:06;5.30;;;3.03;;
67981;SDS011;64109;52.148;4.466;2023-04-06T03:30:32;6.93;;;3.35;;
67981;SDS011;64109;52.148;4.466;2023-04-06T03:32:58;6.63;;;3.20;;
67981;SDS011;64109;52.148;4.466;2023-04-06T03:35:24;6.13;;;2.75;;
67981;SDS011;64109;52.148;4.466;2023-04-06T03:37:50;6.15;;;3.00;;
67981;SDS011;64109;52.148;4.466;2023-04-06T03:40:16;5.32;;;3.22;;
67981;SDS011;64109;52.148;4.466;2023-04-06T03:42:42;5.18;;;3.10;;
67981;SDS011;64109;52.148;4.466;2023-04-06T03:45:08;4.55;;;3.03;;
67981;SDS011;64109;52.148;4.466;2023-04-06T03:47:34;5.05;;;3.22;;
67981;SDS011;64109;52.148;4.466;2023-04-06T03:50:00;6.45;;;3.17;;
67981;SDS011;64109;52.148;4.466;2023-04-06T03:52:26;6.00;;;3.05;;
67981;SDS011;64109;52.148;4.466;2023-04-06T03:54:52;5.95;;;3.20;;
67981;SDS011;64109;52.148;4.466;2023-04-06T03:57:18;7.10;;;3.40;;
67981;SDS011;64109;52.148;4.466;2023-04-06T03:59:44;5.30;;;3.33;;
67981;SDS011;64109;52.148;4.466;2023-04-06T04:02:10;4.95;;;3.03;;
67981;SDS011;64109;52.148;4.466;2023-04-06T04:04:36;7.78;;;3.10;;
67981;SDS011;64109;52.148;4.466;2023-04-06T04:07:02;4.85;;;2.75;;
67981;SDS011;64109;52.148;4.466;2023-04-06T04:09:28;5.63;;;3.70;;
67981;SDS011;64109;52.148;4.466;2023-04-06T04:11:54;7.03;;;3.28;;
67981;SDS011;64109;52.148;4.466;2023-04-06T04:14:20;8.05;;;3.42;;
67981;SDS011;64109;52.148;4.466;2023-04-06T04:16:46;5.97;;;3.30;;
67981;SDS011;64109;52.148;4.466;2023-04-06T04:19:12;6.13;;;3.58;;
67981;SDS011;64109;52.148;4.466;2023-04-06T04:21:42;5.57;;;3.08;;
67981;SDS011;64109;52.148;4.466;2023-04-06T04:24:09;5.07;;;2.97;;
67981;SDS011;64109;52.148;4.466;2023-04-06T04:26:35;6.38;;;3.60;;
67981;SDS011;64109;52.148;4.466;2023-04-06T04:29:01;5.47;;;3.38;;
67981;SDS011;64109;52.148;4.466;2023-04-06T04:31:27;4.90;;;2.83;;
67981;SDS011;64109;52.148;4.466;2023-04-06T04:33:53;4.68;;;3.05;;
67981;SDS011;64109;52.148;4.466;2023-04-06T04:36:19;6.13;;;3.13;;
67981;SDS011;64109;52.148;4.466;2023-04-06T04:38:45;7.10;;;3.35;;
67981;SDS011;64109;52.148;4.466;2023-04-06T04:41:11;6.43;;;2.53;;
67981;SDS011;64109;52.148;4.466;2023-04-06T04:43:37;5.80;;;3.15;;
67981;SDS011;64109;52.148;4.466;2023-04-06T04:46:04;6.05;;;3.20;;
67981;SDS011;64109;52.148;4.466;2023-04-06T04:48:30;4.57;;;2.95;;
67981;SDS011;64109;52.148;4.466;2023-04-06T04:50:56;5.68;;;3.10;;
67981;SDS011;64109;52.148;4.466;2023-04-06T04:53:22;5.53;;;3.20;;
67981;SDS011;64109;52.148;4.466;2023-04-06T04:55:48;7.43;;;3.25;;
67981;SDS011;64109;52.148;4.466;2023-04-06T04:58:14;9.35;;;3.25;;
67981;SDS011;64109;52.148;4.466;2023-04-06T05:00:42;4.82;;;2.67;;
67981;SDS011;64109;52.148;4.466;2023-04-06T05:03:08;6.47;;;3.22;;
67981;SDS011;64109;52.148;4.466;2023-04-06T05:05:35;5.45;;;3.17;;
67981;SDS011;64109;52.148;4.466;2023-04-06T05:08:01;5.97;;;3.25;;
67981;SDS011;64109;52.148;4.466;2023-04-06T05:10:27;5.53;;;3.08;;
67981;SDS011;64109;52.148;4.466;2023-04-06T05:12:53;5.68;;;2.72;;
67981;SDS011;64109;52.148;4.466;2023-04-06T05:15:19;6.63;;;3.55;;
67981;SDS011;64109;52.148;4.466;2023-04-06T05:17:45;5.35;;;2.85;;
67981;SDS011;64109;52.148;4.466;2023-04-06T05:20:11;6.07;;;3.30;;
67981;SDS011;64109;52.148;4.466;2023-04-06T05:22:37;9.70;;;3.42;;
67981;SDS011;64109;52.148;4.466;2023-04-06T05:25:03;9.07;;;3.78;;
67981;SDS011;64109;52.148;4.466;2023-04-06T05:27:29;7.90;;;3.78;;
67981;SDS011;64109;52.148;4.466;2023-04-06T05:29:55;5.38;;;3.38;;
67981;SDS011;64109;52.148;4.466;2023-04-06T05:32:21;5.00;;;2.88;;
67981;SDS011;64109;52.148;4.466;2023-04-06T05:34:49;5.85;;;3.05;;
67981;SDS011;64109;52.148;4.466;2023-04-06T05:37:15;7.80;;;3.45;;
67981;SDS011;64109;52.148;4.466;2023-04-06T05:39:41;7.45;;;3.78;;
67981;SDS011;64109;52.148;4.466;2023-04-06T05:42:07;9.65;;;4.35;;
67981;SDS011;64109;52.148;4.466;2023-04-06T05:44:33;9.10;;;4.85;;
67981;SDS011;64109;52.148;4.466;2023-04-06T05:47:00;7.60;;;3.78;;
67981;SDS011;64109;52.148;4.466;2023-04-06T05:49:26;8.95;;;4.40;;
67981;SDS011;64109;52.148;4.466;2023-04-06T05:51:52;8.57;;;4.53;;
67981;SDS011;64109;52.148;4.466;2023-04-06T05:54:18;8.98;;;4.88;;
67981;SDS011;64109;52.148;4.466;2023-04-06T05:56:44;9.50;;;4.70;;
67981;SDS011;64109;52.148;4.466;2023-04-06T05:59:10;9.68;;;4.43;;
67981;SDS011;64109;52.148;4.466;2023-04-06T06:01:36;9.60;;;4.85;;
67981;SDS011;64109;52.148;4.466;2023-04-06T06:04:02;9.63;;;4.80;;
67981;SDS011;64109;52.148;4.466;2023-04-06T06:06:28;9.15;;;3.95;;
67981;SDS011;64109;52.148;4.466;2023-04-06T06:08:55;8.45;;;4.38;;
67981;SDS011;64109;52.148;4.466;2023-04-06T06:11:24;7.70;;;4.20;;
67981;SDS011;64109;52.148;4.466;2023-04-06T06:13:50;8.55;;;4.25;;
67981;SDS011;64109;52.148;4.466;2023-04-06T06:16:16;9.13;;;4.15;;
67981;SDS011;64109;52.148;4.466;2023-04-06T06:18:42;9.75;;;3.83;;
67981;SDS011;64109;52.148;4.466;2023-04-06T06:21:08;8.00;;;3.80;;
67981;SDS011;64109;52.148;4.466;2023-04-06T06:23:36;7.15;;;3.25;;
67981;SDS011;64109;52.148;4.466;2023-04-06T06:26:02;6.25;;;2.97;;
67981;SDS011;64109;52.148;4.466;2023-04-06T06:28:29;8.27;;;3.28;;
67981;SDS011;64109;52.148;4.466;2023-04-06T06:30:55;5.47;;;2.88;;
67981;SDS011;64109;52.148;4.466;2023-04-06T06:33:21;7.97;;;2.88;;
67981;SDS011;64109;52.148;4.466;2023-04-06T06:35:47;5.00;;;2.90;;
67981;SDS011;64109;52.148;4.466;2023-04-06T06:38:13;4.40;;;2.58;;
67981;SDS011;64109;52.148;4.466;2023-04-06T06:40:40;5.60;;;3.03;;
67981;SDS011;64109;52.148;4.466;2023-04-06T06:43:06;5.68;;;2.90;;
67981;SDS011;64109;52.148;4.466;2023-04-06T06:45:32;7.47;;;3.03;;
67981;SDS011;64109;52.148;4.466;2023-04-06T06:47:58;7.25;;;2.90;;
67981;SDS011;64109;52.148;4.466;2023-04-06T06:50:24;5.25;;;2.63;;
67981;SDS011;64109;52.148;4.466;2023-04-06T06:52:50;5.20;;;2.33;;
67981;SDS011;64109;52.148;4.466;2023-04-06T06:55:16;4.10;;;2.38;;
67981;SDS011;64109;52.148;4.466;2023-04-06T06:57:44;4.40;;;2.42;;
67981;SDS011;64109;52.148;4.466;2023-04-06T07:00:11;4.32;;;2.92;;
67981;SDS011;64109;52.148;4.466;2023-04-06T07:02:38;4.57;;;2.20;;
67981;SDS011;64109;52.148;4.466;2023-04-06T07:05:04;5.97;;;2.80;;
67981;SDS011;64109;52.148;4.466;2023-04-06T07:07:31;5.55;;;2.85;;
67981;SDS011;64109;52.148;4.466;2023-04-06T07:09:57;4.88;;;2.60;;
67981;SDS011;64109;52.148;4.466;2023-04-06T07:12:23;6.55;;;2.60;;
67981;SDS011;64109;52.148;4.466;2023-04-06T07:14:49;5.07;;;2.38;;
67981;SDS011;64109;52.148;4.466;2023-04-06T07:17:15;5.30;;;2.65;;
67981;SDS011;64109;52.148;4.466;2023-04-06T07:19:41;4.60;;;2.67;;
67981;SDS011;64109;52.148;4.466;2023-04-06T07:22:07;6.32;;;3.20;;
67981;SDS011;64109;52.148;4.466;2023-04-06T07:24:33;7.18;;;3.13;;
67981;SDS011;64109;52.148;4.466;2023-04-06T07:26:59;5.60;;;2.75;;
67981;SDS011;64109;52.148;4.466;2023-04-06T07:29:26;7.40;;;2.83;;
67981;SDS011;64109;52.148;4.466;2023-04-06T07:31:52;5.93;;;2.70;;
67981;SDS011;64109;52.148;4.466;2023-04-06T07:34:18;7.55;;;3.55;;
67981;SDS011;64109;52.148;4.466;2023-04-06T07:36:44;5.25;;;2.67;;
67981;SDS011;64109;52.148;4.466;2023-04-06T07:39:10;5.88;;;3.22;;
67981;SDS011;64109;52.148;4.466;2023-04-06T07:41:36;4.60;;;2.75;;
67981;SDS011;64109;52.148;4.466;2023-04-06T07:44:03;5.50;;;2.72;;
67981;SDS011;64109;52.148;4.466;2023-04-06T07:46:29;4.50;;;2.42;;
67981;SDS011;64109;52.148;4.466;2023-04-06T07:48:56;4.22;;;2.53;;
67981;SDS011;64109;52.148;4.466;2023-04-06T07:51:22;4.53;;;2.63;;
67981;SDS011;64109;52.148;4.466;2023-04-06T07:53:50;4.35;;;2.33;;
67981;SDS011;64109;52.148;4.466;2023-04-06T07:56:16;3.88;;;2.40;;
67981;SDS011;64109;52.148;4.466;2023-04-06T07:58:42;4.05;;;2.28;;
67981;SDS011;64109;52.148;4.466;2023-04-06T08:01:08;4.03;;;1.90;;
67981;SDS011;64109;52.148;4.466;2023-04-06T08:03:35;3.53;;;2.05;;
67981;SDS011;64109;52.148;4.466;2023-04-06T08:06:01;3.20;;;1.90;;
67981;SDS011;64109;52.148;4.466;2023-04-06T08:08:27;3.90;;;2.00;;
67981;SDS011;64109;52.148;4.466;2023-04-06T08:10:53;4.30;;;2.15;;
67981;SDS011;64109;52.148;4.466;2023-04-06T08:13:20;3.75;;;2.20;;
67981;SDS011;64109;52.148;4.466;2023-04-06T08:15:46;3.25;;;1.95;;
67981;SDS011;64109;52.148;4.466;2023-04-06T08:18:12;3.42;;;2.00;;
67981;SDS011;64109;52.148;4.466;2023-04-06T08:20:39;4.63;;;2.00;;
67981;SDS011;64109;52.148;4.466;2023-04-06T08:23:05;3.92;;;1.83;;
67981;SDS011;64109;52.148;4.466;2023-04-06T08:25:34;3.63;;;2.10;;
67981;SDS011;64109;52.148;4.466;2023-04-06T08:28:01;3.60;;;2.08;;
67981;SDS011;64109;52.148;4.466;2023-04-06T08:30:27;5.13;;;2.05;;
67981;SDS011;64109;52.148;4.466;2023-04-06T08:32:53;3.22;;;1.60;;
67981;SDS011;64109;52.148;4.466;2023-04-06T08:35:19;2.78;;;1.77;;
67981;SDS011;64109;52.148;4.466;2023-04-06T08:37:45;2.88;;;1.80;;
67981;SDS011;64109;52.148;4.466;2023-04-06T08:40:11;3.00;;;2.00;;
67981;SDS011;64109;52.148;4.466;2023-04-06T08:42:39;3.72;;;1.92;;
67981;SDS011;64109;52.148;4.466;2023-04-06T08:45:08;4.18;;;1.90;;
67981;SDS011;64109;52.148;4.466;2023-04-06T08:47:35;3.58;;;2.22;;
67981;SDS011;64109;52.148;4.466;2023-04-06T08:50:04;5.55;;;1.90;;
67981;SDS011;64109;52.148;4.466;2023-04-06T08:52:31;3.53;;;1.90;;
67981;SDS011;64109;52.148;4.466;2023-04-06T08:54:58;3.70;;;2.10;;
67981;SDS011;64109;52.148;4.466;2023-04-06T08:57:24;4.10;;;1.70;;
67981;SDS011;64109;52.148;4.466;2023-04-06T08:59:51;2.92;;;1.52;;
67981;SDS011;64109;52.148;4.466;2023-04-06T09:02:18;2.08;;;1.42;;
67981;SDS011;64109;52.148;4.466;2023-04-06T09:04:45;3.00;;;1.70;;
67981;SDS011;64109;52.148;4.466;2023-04-06T09:07:13;3.72;;;1.98;;
67981;SDS011;64109;52.148;4.466;2023-04-06T09:09:39;3.90;;;1.80;;
67981;SDS011;64109;52.148;4.466;2023-04-06T09:12:21;3.33;;;1.70;;
67981;SDS011;64109;52.148;4.466;2023-04-06T09:14:47;4.05;;;1.83;;
67981;SDS011;64109;52.148;4.466;2023-04-06T09:17:23;4.60;;;1.88;;
67981;SDS011;64109;52.148;4.466;2023-04-06T09:19:49;3.25;;;1.85;;
67981;SDS011;64109;52.148;4.466;2023-04-06T09:22:15;37.63;;;14.73;;
67981;SDS011;64109;52.148;4.466;2023-04-06T09:24:48;42.45;;;17.30;;
67981;SDS011;64109;52.148;4.466;2023-04-06T09:27:14;33.78;;;15.43;;
67981;SDS011;64109;52.148;4.466;2023-04-06T09:29:41;43.75;;;19.00;;
67981;SDS011;64109;52.148;4.466;2023-04-06T09:32:07;49.42;;;19.50;;
67981;SDS011;64109;52.148;4.466;2023-04-06T09:34:36;65.25;;;26.40;;
67981;SDS011;64109;52.148;4.466;2023-04-06T09:37:20;65.32;;;27.27;;
67981;SDS011;64109;52.148;4.466;2023-04-06T09:39:46;70.15;;;29.27;;
67981;SDS011;64109;52.148;4.466;2023-04-06T09:42:25;76.82;;;30.45;;
67981;SDS011;64109;52.148;4.466;2023-04-06T09:44:51;63.35;;;26.20;;
67981;SDS011;64109;52.148;4.466;2023-04-06T09:47:17;72.50;;;27.77;;
67981;SDS011;64109;52.148;4.466;2023-04-06T09:49:43;70.38;;;29.92;;
67981;SDS011;64109;52.148;4.466;2023-04-06T09:52:10;71.30;;;29.75;;
67981;SDS011;64109;52.148;4.466;2023-04-06T09:54:36;68.30;;;29.02;;
67981;SDS011;64109;52.148;4.466;2023-04-06T09:57:05;59.22;;;24.95;;
67981;SDS011;64109;52.148;4.466;2023-04-06T10:02:02;53.33;;;24.80;;
67981;SDS011;64109;52.148;4.466;2023-04-06T10:06:57;69.97;;;28.27;;
67981;SDS011;64109;52.148;4.466;2023-04-06T10:09:24;60.22;;;26.48;;
67981;SDS011;64109;52.148;4.466;2023-04-06T10:11:51;52.30;;;23.27;;
67981;SDS011;64109;52.148;4.466;2023-04-06T10:14:17;52.17;;;22.83;;
67981;SDS011;64109;52.148;4.466;2023-04-06T10:16:43;56.83;;;24.33;;
67981;SDS011;64109;52.148;4.466;2023-04-06T10:19:16;52.03;;;22.60;;
67981;SDS011;64109;52.148;4.466;2023-04-06T10:21:44;54.33;;;23.23;;
67981;SDS011;64109;52.148;4.466;2023-04-06T10:24:13;50.63;;;21.58;;
67981;SDS011;64109;52.148;4.466;2023-04-06T10:26:39;54.42;;;22.60;;
67981;SDS011;64109;52.148;4.466;2023-04-06T10:29:05;48.38;;;21.33;;
67981;SDS011;64109;52.148;4.466;2023-04-06T10:31:31;53.72;;;22.75;;
67981;SDS011;64109;52.148;4.466;2023-04-06T10:33:58;47.33;;;21.15;;
67981;SDS011;64109;52.148;4.466;2023-04-06T10:36:25;43.22;;;18.70;;
67981;SDS011;64109;52.148;4.466;2023-04-06T10:38:55;42.30;;;18.88;;
67981;SDS011;64109;52.148;4.466;2023-04-06T10:41:22;44.28;;;18.85;;
67981;SDS011;64109;52.148;4.466;2023-04-06T10:43:54;43.88;;;18.90;;
67981;SDS011;64109;52.148;4.466;2023-04-06T10:46:24;35.13;;;16.70;;
67981;SDS011;64109;52.148;4.466;2023-04-06T10:48:50;38.83;;;16.67;;
67981;SDS011;64109;52.148;4.466;2023-04-06T10:51:17;34.90;;;16.00;;
67981;SDS011;64109;52.148;4.466;2023-04-06T10:53:44;37.33;;;16.38;;
67981;SDS011;64109;52.148;4.466;2023-04-06T10:56:12;41.88;;;16.38;;
67981;SDS011;64109;52.148;4.466;2023-04-06T10:58:38;33.58;;;15.23;;
67981;SDS011;64109;52.148;4.466;2023-04-06T11:01:04;36.60;;;16.38;;
67981;SDS011;64109;52.148;4.466;2023-04-06T11:03:30;35.10;;;15.07;;
67981;SDS011;64109;52.148;4.466;2023-04-06T11:05:57;33.55;;;13.30;;
67981;SDS011;64109;52.148;4.466;2023-04-06T11:08:27;29.25;;;13.75;;
67981;SDS011;64109;52.148;4.466;2023-04-06T11:13:38;28.33;;;13.55;;
67981;SDS011;64109;52.148;4.466;2023-04-06T11:16:05;28.20;;;13.13;;
67981;SDS011;64109;52.148;4.466;2023-04-06T11:18:31;30.42;;;11.82;;
67981;SDS011;64109;52.148;4.466;2023-04-06T11:20:57;18.67;;;8.43;;
67981;SDS011;64109;52.148;4.466;2023-04-06T11:23:25;18.63;;;7.80;;
67981;SDS011;64109;52.148;4.466;2023-04-06T11:25:52;18.48;;;9.00;;
67981;SDS011;64109;52.148;4.466;2023-04-06T11:28:18;21.05;;;10.63;;
67981;SDS011;64109;52.148;4.466;2023-04-06T11:30:44;24.45;;;11.38;;
67981;SDS011;64109;52.148;4.466;2023-04-06T11:33:11;25.92;;;11.63;;
67981;SDS011;64109;52.148;4.466;2023-04-06T11:35:36;23.65;;;10.20;;
67981;SDS011;64109;52.148;4.466;2023-04-06T11:38:03;24.20;;;10.73;;
67981;SDS011;64109;52.148;4.466;2023-04-06T11:40:29;28.65;;;12.05;;
67981;SDS011;64109;52.148;4.466;2023-04-06T11:42:56;23.42;;;10.93;;
67981;SDS011;64109;52.148;4.466;2023-04-06T11:45:22;24.23;;;11.80;;
67981;SDS011;64109;52.148;4.466;2023-04-06T11:47:55;22.25;;;10.82;;
67981;SDS011;64109;52.148;4.466;2023-04-06T11:50:23;24.55;;;9.52;;
67981;SDS011;64109;52.148;4.466;2023-04-06T11:52:57;22.42;;;9.45;;
67981;SDS011;64109;52.148;4.466;2023-04-06T11:55:24;25.17;;;10.63;;
67981;SDS011;64109;52.148;4.466;2023-04-06T11:57:50;30.25;;;11.93;;
67981;SDS011;64109;52.148;4.466;2023-04-06T12:00:16;25.25;;;13.05;;
67981;SDS011;64109;52.148;4.466;2023-04-06T12:02:45;24.88;;;12.45;;
67981;SDS011;64109;52.148;4.466;2023-04-06T12:05:11;25.83;;;12.85;;
67981;SDS011;64109;52.148;4.466;2023-04-06T12:07:37;27.70;;;13.27;;
67981;SDS011;64109;52.148;4.466;2023-04-06T12:10:03;27.63;;;14.60;;
67981;SDS011;64109;52.148;4.466;2023-04-06T12:12:30;32.28;;;15.77;;
67981;SDS011;64109;52.148;4.466;2023-04-06T12:14:56;31.23;;;16.40;;
67981;SDS011;64109;52.148;4.466;2023-04-06T12:17:23;30.02;;;15.50;;
67981;SDS011;64109;52.148;4.466;2023-04-06T12:19:49;32.13;;;16.17;;
67981;SDS011;64109;52.148;4.466;2023-04-06T12:22:15;31.33;;;15.30;;
67981;SDS011;64109;52.148;4.466;2023-04-06T12:24:41;28.08;;;14.50;;
67981;SDS011;64109;52.148;4.466;2023-04-06T12:27:08;27.67;;;15.63;;
67981;SDS011;64109;52.148;4.466;2023-04-06T12:29:35;33.75;;;16.17;;
67981;SDS011;64109;52.148;4.466;2023-04-06T12:32:01;32.30;;;17.33;;
67981;SDS011;64109;52.148;4.466;2023-04-06T12:34:27;32.10;;;15.90;;
67981;SDS011;64109;52.148;4.466;2023-04-06T12:36:53;28.02;;;14.90;;
67981;SDS011;64109;52.148;4.466;2023-04-06T12:39:20;30.30;;;15.77;;
67981;SDS011;64109;52.148;4.466;2023-04-06T12:41:46;29.17;;;16.48;;
67981;SDS011;64109;52.148;4.466;2023-04-06T12:44:12;28.33;;;14.98;;
67981;SDS011;64109;52.148;4.466;2023-04-06T12:46:38;27.35;;;14.85;;
67981;SDS011;64109;52.148;4.466;2023-04-06T12:49:05;29.27;;;15.30;;
67981;SDS011;64109;52.148;4.466;2023-04-06T12:51:32;26.05;;;14.05;;
67981;SDS011;64109;52.148;4.466;2023-04-06T12:53:58;25.77;;;13.90;;
67981;SDS011;64109;52.148;4.466;2023-04-06T12:56:24;27.08;;;15.05;;
67981;SDS011;64109;52.148;4.466;2023-04-06T12:58:51;26.05;;;14.02;;
67981;SDS011;64109;52.148;4.466;2023-04-06T13:01:17;27.23;;;13.82;;
67981;SDS011;64109;52.148;4.466;2023-04-06T13:03:43;26.02;;;14.15;;
67981;SDS011;64109;52.148;4.466;2023-04-06T13:06:10;28.40;;;13.00;;
67981;SDS011;64109;52.148;4.466;2023-04-06T13:08:36;21.85;;;11.52;;
67981;SDS011;64109;52.148;4.466;2023-04-06T13:11:02;23.55;;;12.07;;
67981;SDS011;64109;52.148;4.466;2023-04-06T13:13:29;20.60;;;11.18;;
67981;SDS011;64109;52.148;4.466;2023-04-06T13:16:08;19.33;;;11.13;;
67981;SDS011;64109;52.148;4.466;2023-04-06T13:18:34;19.75;;;11.35;;
67981;SDS011;64109;52.148;4.466;2023-04-06T13:21:01;20.23;;;10.77;;
67981;SDS011;64109;52.148;4.466;2023-04-06T13:23:27;18.00;;;9.77;;
67981;SDS011;64109;52.148;4.466;2023-04-06T13:26:00;20.45;;;10.25;;
67981;SDS011;64109;52.148;4.466;2023-04-06T13:28:27;20.38;;;9.93;;
67981;SDS011;64109;52.148;4.466;2023-04-06T13:30:54;18.50;;;9.73;;
67981;SDS011;64109;52.148;4.466;2023-04-06T13:33:20;21.45;;;9.93;;
67981;SDS011;64109;52.148;4.466;2023-04-06T13:35:46;16.65;;;9.55;;
67981;SDS011;64109;52.148;4.466;2023-04-06T13:38:13;21.35;;;10.05;;
67981;SDS011;64109;52.148;4.466;2023-04-06T13:40:39;18.77;;;9.32;;
67981;SDS011;64109;52.148;4.466;2023-04-06T13:43:05;19.58;;;9.68;;
67981;SDS011;64109;52.148;4.466;2023-04-06T13:45:31;19.77;;;10.38;;
67981;SDS011;64109;52.148;4.466;2023-04-06T13:47:57;19.50;;;10.10;;
67981;SDS011;64109;52.148;4.466;2023-04-06T13:50:26;20.02;;;10.32;;
67981;SDS011;64109;52.148;4.466;2023-04-06T13:52:53;19.42;;;10.45;;
67981;SDS011;64109;52.148;4.466;2023-04-06T13:55:19;18.80;;;9.98;;
67981;SDS011;64109;52.148;4.466;2023-04-06T13:57:45;18.52;;;8.85;;
67981;SDS011;64109;52.148;4.466;2023-04-06T14:00:11;16.17;;;9.32;;
67981;SDS011;64109;52.148;4.466;2023-04-06T14:02:39;17.45;;;9.23;;
67981;SDS011;64109;52.148;4.466;2023-04-06T14:05:05;17.02;;;9.02;;
67981;SDS011;64109;52.148;4.466;2023-04-06T14:07:31;18.58;;;9.30;;
67981;SDS011;64109;52.148;4.466;2023-04-06T14:09:57;17.52;;;9.40;;
67981;SDS011;64109;52.148;4.466;2023-04-06T14:12:23;18.27;;;9.00;;
67981;SDS011;64109;52.148;4.466;2023-04-06T14:14:50;13.65;;;7.97;;
67981;SDS011;64109;52.148;4.466;2023-04-06T14:17:16;16.48;;;8.93;;
67981;SDS011;64109;52.148;4.466;2023-04-06T14:19:42;15.05;;;9.02;;
67981;SDS011;64109;52.148;4.466;2023-04-06T14:22:08;17.00;;;9.35;;
67981;SDS011;64109;52.148;4.466;2023-04-06T14:24:34;14.50;;;8.23;;
67981;SDS011;64109;52.148;4.466;2023-04-06T14:27:00;14.75;;;8.15;;
67981;SDS011;64109;52.148;4.466;2023-04-06T14:29:27;15.88;;;8.50;;
67981;SDS011;64109;52.148;4.466;2023-04-06T14:31:53;14.80;;;7.68;;
67981;SDS011;64109;52.148;4.466;2023-04-06T14:34:27;15.82;;;7.53;;
67981;SDS011;64109;52.148;4.466;2023-04-06T14:36:53;14.13;;;7.65;;
67981;SDS011;64109;52.148;4.466;2023-04-06T14:39:19;11.30;;;6.63;;
67981;SDS011;64109;52.148;4.466;2023-04-06T14:41:45;13.38;;;6.45;;
67981;SDS011;64109;52.148;4.466;2023-04-06T14:44:12;11.95;;;6.95;;